sensor_id;sensor_type;location;lat;lon;timestamp;P1;durP1;ratioP1;P2;durP2;ratioP2
74100;SDS011;62462;52.530;21.682;2022-12-11T00:00:33;54.43;;;19.30;;
74100;SDS011;62462;52.530;21.682;2022-12-11T00:03:01;52.60;;;19.43;;
74100;SDS011;62462;52.530;21.682;2022-12-11T00:05:27;53.87;;;23.47;;
74100;SDS011;62462;52.530;21.682;2022-12-11T00:07:52;54.87;;;21.20;;
74100;SDS011;62462;52.530;21.682;2022-12-11T00:10:18;50.27;;;19.53;;
74100;SDS011;62462;52.530;21.682;2022-12-11T00:12:44;52.13;;;20.43;;
74100;SDS011;62462;52.530;21.682;2022-12-11T00:15:10;50.40;;;20.47;;
74100;SDS011;62462;52.530;21.682;2022-12-11T00:17:35;45.80;;;18.37;;
74100;SDS011;62462;52.530;21.682;2022-12-11T00:20:01;50.43;;;18.93;;
74100;SDS011;62462;52.530;21.682;2022-12-11T00:22:28;49.67;;;18.40;;
74100;SDS011;62462;52.530;21.682;2022-12-11T00:24:55;51.63;;;19.37;;
74100;SDS011;62462;52.530;21.682;2022-12-11T00:27:20;49.43;;;19.07;;
74100;SDS011;62462;52.530;21.682;2022-12-11T00:29:46;60.40;;;21.63;;
74100;SDS011;62462;52.530;21.682;2022-12-11T00:32:12;51.80;;;19.43;;
74100;SDS011;62462;52.530;21.682;2022-12-11T00:34:37;43.23;;;17.63;;
74100;SDS011;62462;52.530;21.682;2022-12-11T00:37:03;52.13;;;19.43;;
74100;SDS011;62462;52.530;21.682;2022-12-11T00:39:29;48.17;;;17.97;;
74100;SDS011;62462;52.530;21.682;2022-12-11T00:41:55;47.97;;;17.27;;
74100;SDS011;62462;52.530;21.682;2022-12-11T00:44:20;51.10;;;18.73;;
74100;SDS011;62462;52.530;21.682;2022-12-11T00:46:46;44.90;;;16.87;;
74100;SDS011;62462;52.530;21.682;2022-12-11T00:49:12;45.07;;;17.83;;
74100;SDS011;62462;52.530;21.682;2022-12-11T00:51:38;45.63;;;16.73;;
74100;SDS011;62462;52.530;21.682;2022-12-11T00:54:03;47.40;;;17.80;;
74100;SDS011;62462;52.530;21.682;2022-12-11T00:56:30;46.83;;;17.23;;
74100;SDS011;62462;52.530;21.682;2022-12-11T00:58:56;40.87;;;15.77;;
74100;SDS011;62462;52.530;21.682;2022-12-11T01:01:22;44.83;;;15.93;;
74100;SDS011;62462;52.530;21.682;2022-12-11T01:03:49;46.13;;;16.73;;
74100;SDS011;62462;52.530;21.682;2022-12-11T01:06:16;44.03;;;16.43;;
74100;SDS011;62462;52.530;21.682;2022-12-11T01:08:43;43.10;;;15.70;;
74100;SDS011;62462;52.530;21.682;2022-12-11T01:11:11;40.83;;;15.60;;
74100;SDS011;62462;52.530;21.682;2022-12-11T01:13:38;45.70;;;16.47;;
74100;SDS011;62462;52.530;21.682;2022-12-11T01:16:08;44.37;;;17.87;;
74100;SDS011;62462;52.530;21.682;2022-12-11T01:18:39;40.40;;;15.37;;
74100;SDS011;62462;52.530;21.682;2022-12-11T01:21:06;46.73;;;17.80;;
74100;SDS011;62462;52.530;21.682;2022-12-11T01:23:33;42.50;;;15.43;;
74100;SDS011;62462;52.530;21.682;2022-12-11T01:26:08;38.63;;;15.70;;
74100;SDS011;62462;52.530;21.682;2022-12-11T01:28:37;40.00;;;14.63;;
74100;SDS011;62462;52.530;21.682;2022-12-11T01:31:06;40.47;;;15.70;;
74100;SDS011;62462;52.530;21.682;2022-12-11T01:33:36;37.45;;;13.75;;
74100;SDS011;62462;52.530;21.682;2022-12-11T01:36:16;38.17;;;14.00;;
74100;SDS011;62462;52.530;21.682;2022-12-11T01:38:44;38.27;;;15.30;;
74100;SDS011;62462;52.530;21.682;2022-12-11T01:41:11;39.93;;;14.20;;
74100;SDS011;62462;52.530;21.682;2022-12-11T01:46:53;39.30;;;14.47;;
74100;SDS011;62462;52.530;21.682;2022-12-11T01:49:19;38.30;;;13.80;;
74100;SDS011;62462;52.530;21.682;2022-12-11T01:52:01;42.07;;;15.07;;
74100;SDS011;62462;52.530;21.682;2022-12-11T01:54:43;39.47;;;14.77;;
74100;SDS011;62462;52.530;21.682;2022-12-11T01:57:09;37.20;;;14.27;;
74100;SDS011;62462;52.530;21.682;2022-12-11T01:59:38;41.90;;;15.73;;
74100;SDS011;62462;52.530;21.682;2022-12-11T02:02:08;44.43;;;14.57;;
74100;SDS011;62462;52.530;21.682;2022-12-11T02:04:38;38.43;;;14.30;;
74100;SDS011;62462;52.530;21.682;2022-12-11T02:07:06;43.93;;;15.60;;
74100;SDS011;62462;52.530;21.682;2022-12-11T02:09:32;39.07;;;14.93;;
74100;SDS011;62462;52.530;21.682;2022-12-11T02:17:40;38.47;;;15.47;;
74100;SDS011;62462;52.530;21.682;2022-12-11T02:31:05;43.70;;;16.27;;
74100;SDS011;62462;52.530;21.682;2022-12-11T02:33:42;46.95;;;16.92;;
74100;SDS011;62462;52.530;21.682;2022-12-11T02:36:13;48.60;;;17.20;;
74100;SDS011;62462;52.530;21.682;2022-12-11T02:38:42;46.07;;;17.57;;
74100;SDS011;62462;52.530;21.682;2022-12-11T02:41:15;44.57;;;16.77;;
74100;SDS011;62462;52.530;21.682;2022-12-11T02:43:43;48.33;;;17.03;;
74100;SDS011;62462;52.530;21.682;2022-12-11T02:46:09;45.63;;;17.37;;
74100;SDS011;62462;52.530;21.682;2022-12-11T02:48:38;48.17;;;17.23;;
74100;SDS011;62462;52.530;21.682;2022-12-11T02:51:06;47.13;;;17.30;;
74100;SDS011;62462;52.530;21.682;2022-12-11T02:53:34;40.87;;;15.97;;
74100;SDS011;62462;52.530;21.682;2022-12-11T02:56:15;46.43;;;16.40;;
74100;SDS011;62462;52.530;21.682;2022-12-11T02:58:54;40.83;;;15.87;;
74100;SDS011;62462;52.530;21.682;2022-12-11T03:01:27;43.50;;;15.93;;
74100;SDS011;62462;52.530;21.682;2022-12-11T03:03:53;50.73;;;16.80;;
74100;SDS011;62462;52.530;21.682;2022-12-11T03:06:21;42.93;;;16.63;;
74100;SDS011;62462;52.530;21.682;2022-12-11T03:08:51;42.20;;;16.10;;
74100;SDS011;62462;52.530;21.682;2022-12-11T03:11:17;43.70;;;16.27;;
74100;SDS011;62462;52.530;21.682;2022-12-11T03:13:42;36.70;;;13.80;;
74100;SDS011;62462;52.530;21.682;2022-12-11T03:16:55;37.30;;;14.70;;
74100;SDS011;62462;52.530;21.682;2022-12-11T03:19:19;37.63;;;14.10;;
74100;SDS011;62462;52.530;21.682;2022-12-11T03:21:59;39.93;;;15.00;;
74100;SDS011;62462;52.530;21.682;2022-12-11T03:24:49;34.57;;;13.77;;
74100;SDS011;62462;52.530;21.682;2022-12-11T03:27:32;36.83;;;14.50;;
74100;SDS011;62462;52.530;21.682;2022-12-11T03:35:47;39.00;;;14.17;;
74100;SDS011;62462;52.530;21.682;2022-12-11T03:38:28;36.05;;;14.70;;
74100;SDS011;62462;52.530;21.682;2022-12-11T03:40:59;36.40;;;14.07;;
74100;SDS011;62462;52.530;21.682;2022-12-11T03:43:27;32.17;;;11.80;;
74100;SDS011;62462;52.530;21.682;2022-12-11T03:45:54;31.20;;;13.03;;
74100;SDS011;62462;52.530;21.682;2022-12-11T03:48:22;35.40;;;12.37;;
74100;SDS011;62462;52.530;21.682;2022-12-11T03:50:52;31.90;;;13.40;;
74100;SDS011;62462;52.530;21.682;2022-12-11T03:53:19;29.30;;;13.03;;
74100;SDS011;62462;52.530;21.682;2022-12-11T03:55:45;27.50;;;12.40;;
74100;SDS011;62462;52.530;21.682;2022-12-11T03:58:13;31.20;;;11.60;;
74100;SDS011;62462;52.530;21.682;2022-12-11T04:00:39;32.00;;;11.77;;
74100;SDS011;62462;52.530;21.682;2022-12-11T04:03:05;24.53;;;10.70;;
74100;SDS011;62462;52.530;21.682;2022-12-11T04:05:44;31.13;;;12.40;;
74100;SDS011;62462;52.530;21.682;2022-12-11T04:08:14;25.13;;;11.47;;
74100;SDS011;62462;52.530;21.682;2022-12-11T04:10:41;27.20;;;11.07;;
74100;SDS011;62462;52.530;21.682;2022-12-11T04:13:08;23.83;;;10.33;;
74100;SDS011;62462;52.530;21.682;2022-12-11T04:15:34;26.37;;;10.13;;
74100;SDS011;62462;52.530;21.682;2022-12-11T04:18:02;29.57;;;11.03;;
74100;SDS011;62462;52.530;21.682;2022-12-11T04:20:46;24.43;;;10.23;;
74100;SDS011;62462;52.530;21.682;2022-12-11T04:23:30;27.88;;;11.10;;
74100;SDS011;62462;52.530;21.682;2022-12-11T04:26:15;27.63;;;10.85;;
74100;SDS011;62462;52.530;21.682;2022-12-11T04:28:43;27.67;;;11.27;;
74100;SDS011;62462;52.530;21.682;2022-12-11T04:31:15;29.40;;;11.57;;
74100;SDS011;62462;52.530;21.682;2022-12-11T04:33:43;27.07;;;10.60;;
74100;SDS011;62462;52.530;21.682;2022-12-11T04:36:10;27.93;;;10.90;;
74100;SDS011;62462;52.530;21.682;2022-12-11T04:38:36;28.33;;;11.93;;
74100;SDS011;62462;52.530;21.682;2022-12-11T04:41:06;30.33;;;12.07;;
74100;SDS011;62462;52.530;21.682;2022-12-11T04:43:33;26.70;;;10.90;;
74100;SDS011;62462;52.530;21.682;2022-12-11T04:46:00;24.63;;;11.07;;
74100;SDS011;62462;52.530;21.682;2022-12-11T04:48:31;28.07;;;10.23;;
74100;SDS011;62462;52.530;21.682;2022-12-11T04:50:57;25.77;;;10.23;;
74100;SDS011;62462;52.530;21.682;2022-12-11T04:53:23;29.60;;;10.93;;
74100;SDS011;62462;52.530;21.682;2022-12-11T04:55:49;26.80;;;11.27;;
74100;SDS011;62462;52.530;21.682;2022-12-11T04:58:15;25.57;;;10.47;;
74100;SDS011;62462;52.530;21.682;2022-12-11T05:00:41;25.90;;;11.17;;
74100;SDS011;62462;52.530;21.682;2022-12-11T05:03:07;25.37;;;10.50;;
74100;SDS011;62462;52.530;21.682;2022-12-11T05:05:32;28.13;;;10.23;;
74100;SDS011;62462;52.530;21.682;2022-12-11T05:07:58;26.77;;;10.47;;
74100;SDS011;62462;52.530;21.682;2022-12-11T05:10:24;26.20;;;10.20;;
74100;SDS011;62462;52.530;21.682;2022-12-11T05:12:50;27.83;;;10.00;;
74100;SDS011;62462;52.530;21.682;2022-12-11T05:15:15;28.67;;;11.33;;
74100;SDS011;62462;52.530;21.682;2022-12-11T05:17:41;23.53;;;10.03;;
74100;SDS011;62462;52.530;21.682;2022-12-11T05:20:07;27.73;;;11.03;;
74100;SDS011;62462;52.530;21.682;2022-12-11T05:22:34;27.30;;;10.83;;
74100;SDS011;62462;52.530;21.682;2022-12-11T05:25:00;29.27;;;10.80;;
74100;SDS011;62462;52.530;21.682;2022-12-11T05:27:26;27.50;;;11.10;;
74100;SDS011;62462;52.530;21.682;2022-12-11T05:29:52;25.33;;;11.57;;
74100;SDS011;62462;52.530;21.682;2022-12-11T05:32:18;26.87;;;11.40;;
74100;SDS011;62462;52.530;21.682;2022-12-11T05:34:43;34.17;;;12.37;;
74100;SDS011;62462;52.530;21.682;2022-12-11T05:37:09;33.73;;;12.10;;
74100;SDS011;62462;52.530;21.682;2022-12-11T05:39:35;32.80;;;11.97;;
74100;SDS011;62462;52.530;21.682;2022-12-11T05:42:02;31.60;;;11.83;;
74100;SDS011;62462;52.530;21.682;2022-12-11T05:44:28;29.77;;;12.60;;
74100;SDS011;62462;52.530;21.682;2022-12-11T05:46:53;33.70;;;12.90;;
74100;SDS011;62462;52.530;21.682;2022-12-11T05:49:19;34.50;;;13.00;;
74100;SDS011;62462;52.530;21.682;2022-12-11T05:51:46;35.50;;;11.93;;
74100;SDS011;62462;52.530;21.682;2022-12-11T05:54:11;34.20;;;12.87;;
74100;SDS011;62462;52.530;21.682;2022-12-11T05:56:38;32.53;;;13.17;;
74100;SDS011;62462;52.530;21.682;2022-12-11T05:59:04;30.97;;;11.47;;
74100;SDS011;62462;52.530;21.682;2022-12-11T06:01:38;34.13;;;12.53;;
74100;SDS011;62462;52.530;21.682;2022-12-11T06:04:06;31.97;;;12.47;;
74100;SDS011;62462;52.530;21.682;2022-12-11T06:06:33;32.27;;;12.47;;
74100;SDS011;62462;52.530;21.682;2022-12-11T06:09:00;35.40;;;13.00;;
74100;SDS011;62462;52.530;21.682;2022-12-11T06:11:26;31.40;;;12.37;;
74100;SDS011;62462;52.530;21.682;2022-12-11T06:13:53;35.07;;;13.00;;
74100;SDS011;62462;52.530;21.682;2022-12-11T06:16:20;34.90;;;11.83;;
74100;SDS011;62462;52.530;21.682;2022-12-11T06:18:46;34.97;;;13.50;;
74100;SDS011;62462;52.530;21.682;2022-12-11T06:21:20;34.57;;;12.33;;
74100;SDS011;62462;52.530;21.682;2022-12-11T06:23:48;32.70;;;13.63;;
74100;SDS011;62462;52.530;21.682;2022-12-11T06:26:16;32.87;;;12.27;;
74100;SDS011;62462;52.530;21.682;2022-12-11T06:28:42;30.90;;;12.87;;
74100;SDS011;62462;52.530;21.682;2022-12-11T06:31:08;32.90;;;12.83;;
74100;SDS011;62462;52.530;21.682;2022-12-11T06:33:34;35.13;;;13.27;;
74100;SDS011;62462;52.530;21.682;2022-12-11T06:36:01;33.90;;;13.30;;
74100;SDS011;62462;52.530;21.682;2022-12-11T06:38:28;35.83;;;12.77;;
74100;SDS011;62462;52.530;21.682;2022-12-11T06:40:55;38.50;;;13.37;;
74100;SDS011;62462;52.530;21.682;2022-12-11T06:43:24;32.47;;;13.00;;
74100;SDS011;62462;52.530;21.682;2022-12-11T06:45:50;37.07;;;13.47;;
74100;SDS011;62462;52.530;21.682;2022-12-11T06:48:17;33.33;;;13.47;;
74100;SDS011;62462;52.530;21.682;2022-12-11T06:50:43;30.93;;;13.13;;
74100;SDS011;62462;52.530;21.682;2022-12-11T06:53:09;36.67;;;13.63;;
74100;SDS011;62462;52.530;21.682;2022-12-11T06:55:36;36.60;;;13.10;;
74100;SDS011;62462;52.530;21.682;2022-12-11T06:58:04;34.87;;;13.10;;
74100;SDS011;62462;52.530;21.682;2022-12-11T07:00:30;33.67;;;12.70;;
74100;SDS011;62462;52.530;21.682;2022-12-11T07:02:55;38.43;;;13.90;;
74100;SDS011;62462;52.530;21.682;2022-12-11T07:05:21;34.30;;;14.60;;
74100;SDS011;62462;52.530;21.682;2022-12-11T07:07:47;36.67;;;13.83;;
74100;SDS011;62462;52.530;21.682;2022-12-11T07:10:14;44.93;;;13.67;;
74100;SDS011;62462;52.530;21.682;2022-12-11T07:12:39;39.07;;;13.57;;
74100;SDS011;62462;52.530;21.682;2022-12-11T07:15:05;37.40;;;14.00;;
74100;SDS011;62462;52.530;21.682;2022-12-11T07:17:31;35.37;;;13.77;;
74100;SDS011;62462;52.530;21.682;2022-12-11T07:19:57;36.03;;;13.33;;
74100;SDS011;62462;52.530;21.682;2022-12-11T07:22:23;39.13;;;14.17;;
74100;SDS011;62462;52.530;21.682;2022-12-11T07:24:48;32.53;;;13.33;;
74100;SDS011;62462;52.530;21.682;2022-12-11T07:27:14;38.97;;;13.97;;
74100;SDS011;62462;52.530;21.682;2022-12-11T07:29:40;34.13;;;13.03;;
74100;SDS011;62462;52.530;21.682;2022-12-11T07:32:06;37.53;;;13.47;;
74100;SDS011;62462;52.530;21.682;2022-12-11T07:34:31;36.50;;;13.43;;
74100;SDS011;62462;52.530;21.682;2022-12-11T07:36:57;37.37;;;14.47;;
74100;SDS011;62462;52.530;21.682;2022-12-11T07:39:23;41.23;;;14.60;;
74100;SDS011;62462;52.530;21.682;2022-12-11T07:41:48;35.20;;;14.07;;
74100;SDS011;62462;52.530;21.682;2022-12-11T07:44:14;32.47;;;12.43;;
74100;SDS011;62462;52.530;21.682;2022-12-11T07:46:40;38.20;;;13.40;;
74100;SDS011;62462;52.530;21.682;2022-12-11T07:49:06;36.80;;;14.10;;
74100;SDS011;62462;52.530;21.682;2022-12-11T07:51:33;35.03;;;13.97;;
74100;SDS011;62462;52.530;21.682;2022-12-11T07:54:01;33.80;;;13.37;;
74100;SDS011;62462;52.530;21.682;2022-12-11T07:56:31;35.30;;;13.60;;
74100;SDS011;62462;52.530;21.682;2022-12-11T07:58:58;33.60;;;12.47;;
74100;SDS011;62462;52.530;21.682;2022-12-11T08:01:26;36.10;;;13.37;;
74100;SDS011;62462;52.530;21.682;2022-12-11T08:03:53;34.27;;;13.37;;
74100;SDS011;62462;52.530;21.682;2022-12-11T08:06:23;31.67;;;12.60;;
74100;SDS011;62462;52.530;21.682;2022-12-11T08:08:54;33.83;;;13.43;;
74100;SDS011;62462;52.530;21.682;2022-12-11T08:11:21;32.57;;;12.43;;
74100;SDS011;62462;52.530;21.682;2022-12-11T08:13:47;31.47;;;12.97;;
74100;SDS011;62462;52.530;21.682;2022-12-11T08:16:13;35.27;;;14.43;;
74100;SDS011;62462;52.530;21.682;2022-12-11T08:18:40;29.80;;;13.30;;
74100;SDS011;62462;52.530;21.682;2022-12-11T08:21:08;30.50;;;12.03;;
74100;SDS011;62462;52.530;21.682;2022-12-11T08:23:36;35.63;;;12.33;;
74100;SDS011;62462;52.530;21.682;2022-12-11T08:26:03;29.40;;;11.67;;
74100;SDS011;62462;52.530;21.682;2022-12-11T08:28:29;35.40;;;12.03;;
74100;SDS011;62462;52.530;21.682;2022-12-11T08:30:56;30.33;;;12.33;;
74100;SDS011;62462;52.530;21.682;2022-12-11T08:33:22;35.00;;;12.83;;
74100;SDS011;62462;52.530;21.682;2022-12-11T08:35:48;29.83;;;11.43;;
74100;SDS011;62462;52.530;21.682;2022-12-11T08:38:13;29.63;;;12.10;;
74100;SDS011;62462;52.530;21.682;2022-12-11T08:40:39;30.50;;;12.77;;
74100;SDS011;62462;52.530;21.682;2022-12-11T08:43:05;30.50;;;13.57;;
74100;SDS011;62462;52.530;21.682;2022-12-11T08:45:31;30.93;;;12.10;;
74100;SDS011;62462;52.530;21.682;2022-12-11T08:47:59;27.77;;;11.93;;
74100;SDS011;62462;52.530;21.682;2022-12-11T08:50:25;29.70;;;12.53;;
74100;SDS011;62462;52.530;21.682;2022-12-11T08:52:51;26.53;;;11.93;;
74100;SDS011;62462;52.530;21.682;2022-12-11T08:55:18;29.03;;;12.27;;
74100;SDS011;62462;52.530;21.682;2022-12-11T08:57:44;27.70;;;10.80;;
74100;SDS011;62462;52.530;21.682;2022-12-11T09:00:11;32.70;;;12.67;;
74100;SDS011;62462;52.530;21.682;2022-12-11T09:02:37;28.70;;;11.50;;
74100;SDS011;62462;52.530;21.682;2022-12-11T09:05:03;26.93;;;10.73;;
74100;SDS011;62462;52.530;21.682;2022-12-11T09:07:35;24.33;;;10.37;;
74100;SDS011;62462;52.530;21.682;2022-12-11T09:10:02;27.07;;;11.07;;
74100;SDS011;62462;52.530;21.682;2022-12-11T09:12:28;29.23;;;11.90;;
74100;SDS011;62462;52.530;21.682;2022-12-11T09:14:54;22.53;;;10.07;;
74100;SDS011;62462;52.530;21.682;2022-12-11T09:17:20;23.97;;;10.90;;
74100;SDS011;62462;52.530;21.682;2022-12-11T09:19:45;24.00;;;10.90;;
74100;SDS011;62462;52.530;21.682;2022-12-11T09:22:11;25.50;;;10.67;;
74100;SDS011;62462;52.530;21.682;2022-12-11T09:24:37;23.60;;;10.90;;
74100;SDS011;62462;52.530;21.682;2022-12-11T09:27:03;24.00;;;10.13;;
74100;SDS011;62462;52.530;21.682;2022-12-11T09:29:30;24.07;;;10.70;;
74100;SDS011;62462;52.530;21.682;2022-12-11T09:31:56;21.83;;;9.90;;
74100;SDS011;62462;52.530;21.682;2022-12-11T09:34:22;24.43;;;10.70;;
74100;SDS011;62462;52.530;21.682;2022-12-11T09:36:48;22.17;;;9.57;;
74100;SDS011;62462;52.530;21.682;2022-12-11T09:39:15;28.03;;;12.67;;
74100;SDS011;62462;52.530;21.682;2022-12-11T09:53:05;18.93;;;8.33;;
74100;SDS011;62462;52.530;21.682;2022-12-11T09:56:15;21.77;;;10.27;;
74100;SDS011;62462;52.530;21.682;2022-12-11T10:06:32;19.80;;;9.03;;
74100;SDS011;62462;52.530;21.682;2022-12-11T10:15:16;24.50;;;9.93;;
74100;SDS011;62462;52.530;21.682;2022-12-11T10:17:59;19.00;;;8.30;;
74100;SDS011;62462;52.530;21.682;2022-12-11T10:20:29;21.53;;;9.10;;
74100;SDS011;62462;52.530;21.682;2022-12-11T10:22:59;22.77;;;8.98;;
74100;SDS011;62462;52.530;21.682;2022-12-11T10:25:30;18.03;;;9.07;;
74100;SDS011;62462;52.530;21.682;2022-12-11T10:28:07;19.77;;;9.15;;
74100;SDS011;62462;52.530;21.682;2022-12-11T10:30:38;19.67;;;9.13;;
74100;SDS011;62462;52.530;21.682;2022-12-11T10:33:24;21.47;;;8.97;;
74100;SDS011;62462;52.530;21.682;2022-12-11T10:35:59;18.30;;;9.27;;
74100;SDS011;62462;52.530;21.682;2022-12-11T10:38:32;22.27;;;10.87;;
74100;SDS011;62462;52.530;21.682;2022-12-11T10:43:32;21.80;;;9.73;;
74100;SDS011;62462;52.530;21.682;2022-12-11T10:46:04;20.57;;;9.13;;
74100;SDS011;62462;52.530;21.682;2022-12-11T10:48:31;53.33;;;32.20;;
74100;SDS011;62462;52.530;21.682;2022-12-11T10:51:02;39.90;;;19.13;;
74100;SDS011;62462;52.530;21.682;2022-12-11T10:53:30;19.27;;;9.47;;
74100;SDS011;62462;52.530;21.682;2022-12-11T10:55:57;23.20;;;10.40;;
74100;SDS011;62462;52.530;21.682;2022-12-11T10:58:24;23.70;;;10.10;;
74100;SDS011;62462;52.530;21.682;2022-12-11T11:01:02;24.93;;;9.93;;
74100;SDS011;62462;52.530;21.682;2022-12-11T11:03:30;22.77;;;9.80;;
74100;SDS011;62462;52.530;21.682;2022-12-11T11:06:04;22.27;;;9.43;;
74100;SDS011;62462;52.530;21.682;2022-12-11T11:08:40;18.47;;;8.77;;
74100;SDS011;62462;52.530;21.682;2022-12-11T11:11:22;20.50;;;8.67;;
74100;SDS011;62462;52.530;21.682;2022-12-11T11:14:07;19.33;;;8.93;;
74100;SDS011;62462;52.530;21.682;2022-12-11T11:16:37;17.87;;;9.00;;
74100;SDS011;62462;52.530;21.682;2022-12-11T11:19:04;18.43;;;8.63;;
74100;SDS011;62462;52.530;21.682;2022-12-11T11:21:30;18.90;;;8.73;;
74100;SDS011;62462;52.530;21.682;2022-12-11T11:23:58;20.77;;;9.37;;
74100;SDS011;62462;52.530;21.682;2022-12-11T11:26:24;18.40;;;9.10;;
74100;SDS011;62462;52.530;21.682;2022-12-11T11:28:53;17.73;;;8.93;;
74100;SDS011;62462;52.530;21.682;2022-12-11T11:31:21;19.60;;;9.20;;
74100;SDS011;62462;52.530;21.682;2022-12-11T11:34:00;17.80;;;8.40;;
74100;SDS011;62462;52.530;21.682;2022-12-11T11:36:31;20.17;;;8.32;;
74100;SDS011;62462;52.530;21.682;2022-12-11T11:39:02;19.93;;;10.57;;
74100;SDS011;62462;52.530;21.682;2022-12-11T11:41:37;16.80;;;8.70;;
74100;SDS011;62462;52.530;21.682;2022-12-11T11:44:24;21.43;;;9.13;;
74100;SDS011;62462;52.530;21.682;2022-12-11T11:46:59;24.73;;;12.77;;
74100;SDS011;62462;52.530;21.682;2022-12-11T11:52:40;17.80;;;8.32;;
74100;SDS011;62462;52.530;21.682;2022-12-11T11:55:17;17.73;;;8.47;;
74100;SDS011;62462;52.530;21.682;2022-12-11T11:58:08;21.17;;;9.67;;
74100;SDS011;62462;52.530;21.682;2022-12-11T12:00:39;21.30;;;9.23;;
74100;SDS011;62462;52.530;21.682;2022-12-11T12:27:50;18.30;;;9.30;;
74100;SDS011;62462;52.530;21.682;2022-12-11T12:30:24;23.30;;;9.77;;
74100;SDS011;62462;52.530;21.682;2022-12-11T12:33:16;22.73;;;10.47;;
74100;SDS011;62462;52.530;21.682;2022-12-11T12:35:55;22.27;;;12.57;;
74100;SDS011;62462;52.530;21.682;2022-12-11T12:41:09;27.10;;;13.37;;
74100;SDS011;62462;52.530;21.682;2022-12-11T12:49:26;28.63;;;13.73;;
74100;SDS011;62462;52.530;21.682;2022-12-11T12:52:02;31.27;;;13.43;;
74100;SDS011;62462;52.530;21.682;2022-12-11T12:54:30;22.47;;;11.60;;
74100;SDS011;62462;52.530;21.682;2022-12-11T12:56:57;24.47;;;10.10;;
74100;SDS011;62462;52.530;21.682;2022-12-11T12:59:26;22.17;;;10.63;;
74100;SDS011;62462;52.530;21.682;2022-12-11T13:01:53;24.63;;;12.97;;
74100;SDS011;62462;52.530;21.682;2022-12-11T13:04:27;22.53;;;11.17;;
74100;SDS011;62462;52.530;21.682;2022-12-11T13:07:11;21.93;;;10.77;;
74100;SDS011;62462;52.530;21.682;2022-12-11T13:09:54;24.27;;;12.13;;
74100;SDS011;62462;52.530;21.682;2022-12-11T13:12:27;21.57;;;9.77;;
74100;SDS011;62462;52.530;21.682;2022-12-11T13:15:21;47.67;;;23.45;;
74100;SDS011;62462;52.530;21.682;2022-12-11T13:17:47;24.70;;;11.77;;
74100;SDS011;62462;52.530;21.682;2022-12-11T13:20:17;45.80;;;23.40;;
74100;SDS011;62462;52.530;21.682;2022-12-11T13:25:31;24.87;;;11.70;;
74100;SDS011;62462;52.530;21.682;2022-12-11T13:29:04;22.43;;;9.90;;
74100;SDS011;62462;52.530;21.682;2022-12-11T13:31:06;55.00;;;21.53;;
74100;SDS011;62462;52.530;21.682;2022-12-11T13:33:48;47.87;;;17.40;;
74100;SDS011;62462;52.530;21.682;2022-12-11T13:36:23;37.53;;;15.27;;
74100;SDS011;62462;52.530;21.682;2022-12-11T13:39:05;54.00;;;21.77;;
74100;SDS011;62462;52.530;21.682;2022-12-11T13:41:42;33.17;;;13.73;;
74100;SDS011;62462;52.530;21.682;2022-12-11T13:44:12;22.77;;;10.77;;
74100;SDS011;62462;52.530;21.682;2022-12-11T13:46:43;31.48;;;15.23;;
74100;SDS011;62462;52.530;21.682;2022-12-11T13:49:16;25.73;;;12.87;;
74100;SDS011;62462;52.530;21.682;2022-12-11T13:51:52;24.47;;;12.67;;
74100;SDS011;62462;52.530;21.682;2022-12-11T13:54:20;21.17;;;10.10;;
74100;SDS011;62462;52.530;21.682;2022-12-11T13:56:56;25.03;;;13.80;;
74100;SDS011;62462;52.530;21.682;2022-12-11T14:02:01;25.57;;;13.00;;
74100;SDS011;62462;52.530;21.682;2022-12-11T14:04:58;21.13;;;8.87;;
74100;SDS011;62462;52.530;21.682;2022-12-11T14:07:34;24.60;;;13.30;;
74100;SDS011;62462;52.530;21.682;2022-12-11T14:10:07;22.67;;;10.73;;
74100;SDS011;62462;52.530;21.682;2022-12-11T14:12:46;20.53;;;10.60;;
74100;SDS011;62462;52.530;21.682;2022-12-11T14:15:41;29.47;;;16.40;;
74100;SDS011;62462;52.530;21.682;2022-12-11T14:18:14;39.10;;;21.23;;
74100;SDS011;62462;52.530;21.682;2022-12-11T14:20:55;24.13;;;12.13;;
74100;SDS011;62462;52.530;21.682;2022-12-11T14:23:24;20.80;;;10.13;;
74100;SDS011;62462;52.530;21.682;2022-12-11T14:25:55;34.93;;;13.70;;
74100;SDS011;62462;52.530;21.682;2022-12-11T14:28:26;44.97;;;15.73;;
74100;SDS011;62462;52.530;21.682;2022-12-11T14:30:55;60.23;;;18.67;;
74100;SDS011;62462;52.530;21.682;2022-12-11T14:36:39;42.20;;;13.30;;
74100;SDS011;62462;52.530;21.682;2022-12-11T14:39:54;30.17;;;11.10;;
74100;SDS011;62462;52.530;21.682;2022-12-11T14:47:19;26.10;;;13.30;;
74100;SDS011;62462;52.530;21.682;2022-12-11T14:49:54;30.38;;;13.90;;
74100;SDS011;62462;52.530;21.682;2022-12-11T14:52:30;41.37;;;20.07;;
74100;SDS011;62462;52.530;21.682;2022-12-11T14:57:34;29.43;;;15.07;;
74100;SDS011;62462;52.530;21.682;2022-12-11T15:00:04;28.23;;;13.60;;
74100;SDS011;62462;52.530;21.682;2022-12-11T15:07:37;27.80;;;14.80;;
74100;SDS011;62462;52.530;21.682;2022-12-11T15:10:05;24.80;;;13.10;;
74100;SDS011;62462;52.530;21.682;2022-12-11T15:12:31;26.27;;;14.60;;
74100;SDS011;62462;52.530;21.682;2022-12-11T15:14:58;29.10;;;14.63;;
74100;SDS011;62462;52.530;21.682;2022-12-11T15:17:28;21.77;;;11.60;;
74100;SDS011;62462;52.530;21.682;2022-12-11T15:19:55;23.03;;;11.43;;
74100;SDS011;62462;52.530;21.682;2022-12-11T15:22:28;30.13;;;16.07;;
74100;SDS011;62462;52.530;21.682;2022-12-11T15:24:56;28.40;;;14.23;;
74100;SDS011;62462;52.530;21.682;2022-12-11T15:29:56;37.17;;;18.97;;
74100;SDS011;62462;52.530;21.682;2022-12-11T15:32:22;38.43;;;18.73;;
74100;SDS011;62462;52.530;21.682;2022-12-11T15:34:58;32.37;;;17.40;;
74100;SDS011;62462;52.530;21.682;2022-12-11T15:37:31;30.73;;;14.90;;
74100;SDS011;62462;52.530;21.682;2022-12-11T15:40:00;35.80;;;17.17;;
74100;SDS011;62462;52.530;21.682;2022-12-11T15:44:55;35.67;;;16.80;;
74100;SDS011;62462;52.530;21.682;2022-12-11T15:47:22;42.03;;;20.80;;
74100;SDS011;62462;52.530;21.682;2022-12-11T15:49:54;49.33;;;20.77;;
74100;SDS011;62462;52.530;21.682;2022-12-11T15:52:41;56.73;;;24.43;;
74100;SDS011;62462;52.530;21.682;2022-12-11T15:55:08;62.33;;;25.47;;
74100;SDS011;62462;52.530;21.682;2022-12-11T15:57:34;49.10;;;19.07;;
74100;SDS011;62462;52.530;21.682;2022-12-11T16:00:00;44.07;;;17.20;;
74100;SDS011;62462;52.530;21.682;2022-12-11T16:02:26;34.43;;;17.37;;
74100;SDS011;62462;52.530;21.682;2022-12-11T16:04:52;45.63;;;22.20;;
74100;SDS011;62462;52.530;21.682;2022-12-11T16:07:21;47.47;;;25.03;;
74100;SDS011;62462;52.530;21.682;2022-12-11T16:09:49;31.03;;;15.27;;
74100;SDS011;62462;52.530;21.682;2022-12-11T16:12:15;37.87;;;16.33;;
74100;SDS011;62462;52.530;21.682;2022-12-11T16:14:42;29.77;;;13.50;;
74100;SDS011;62462;52.530;21.682;2022-12-11T16:17:09;33.10;;;15.83;;
74100;SDS011;62462;52.530;21.682;2022-12-11T16:19:37;23.73;;;11.00;;
74100;SDS011;62462;52.530;21.682;2022-12-11T16:22:04;27.30;;;11.13;;